Dades meteomassalio
Diari Summary for Octubre 29, 2017 Units:  Metric    English   Both
« Previous Day
Next Day »
Diari Semanal Mensual Anual Personalitzat
  Maxima: Minima: Mijana:
Temperatura: -17.8 °C -16.6 °C -11.4 °C
Rosada: -17.8 °C -19 °C -15.7 °C
Humitat: Humidity % 42 % 61 %
Velocitat del vent: 0 km/h 0 km/h 22.2 km/h
Racha vent: 0 km/h - -
Vent:- - SSW
Pressio: 0 hPa 34601.5 hPa -
Pluja: 0 mm    
Historical Graphs
 
 
Tabular Data for Octubre 29, 2017
Time Temperature Dew Point Pressure Wind Wind Speed Wind Gust Humidity Rainfall Rate (Hourly) solar Conditions
-17.8 °C -17.8 °C 0 hPa Calm     Humidity % 0 mm SolarRadiationWatts/m^2 W/m2 Conditions
00:04 -12.2 °C -15.4 °C 34774.2 hPa South 20.9 km/h 20.9 km/h 67 % 0 mm 0.0 W/m2 CLR
00:09 -12.2 °C -15.4 °C 34774.2 hPa South 17.9 km/h 17.9 km/h 67 % 0 mm 0.0 W/m2 CLR
00:14 -12.2 °C -15.4 °C 34774.2 hPa South 17.9 km/h 17.9 km/h 67 % 0 mm 0.0 W/m2 CLR
00:19 -12.2 °C -15.4 °C 34774.2 hPa South 15 km/h 15 km/h 67 % 0 mm 0.0 W/m2 CLR
00:24 -12.6 °C -15.8 °C 34774.2 hPa SSE 11.9 km/h 11.9 km/h 67 % 0 mm 0.0 W/m2 CLR
00:29 -12.6 °C -15.8 °C 34774.2 hPa SSE 17.9 km/h 17.9 km/h 67 % 0 mm 0.0 W/m2 CLR
00:34 -12.2 °C -15.4 °C 34774.2 hPa SSE 17.9 km/h 17.9 km/h 68 % 0 mm 0.0 W/m2 CLR
00:39 -11.9 °C -15.1 °C 34774.2 hPa South 15 km/h 15 km/h 68 % 0 mm 0.0 W/m2 CLR
00:44 -11.6 °C -14.8 °C 34774.2 hPa SSE 9 km/h 9 km/h 68 % 0 mm 0.0 W/m2 CLR
00:49 -11.3 °C -14.3 °C 34774.2 hPa South 11.9 km/h 11.9 km/h 69 % 0 mm 0.0 W/m2 CLR
00:54 -11.3 °C -14.2 °C 34774.2 hPa SE 17.9 km/h 17.9 km/h 70 % 0 mm 0.0 W/m2 CLR
00:59 -11.3 °C -14.2 °C 34774.2 hPa SSE 17.9 km/h 17.9 km/h 70 % 0 mm 0.0 W/m2 CLR
01:04 -11 °C -13.9 °C 34774.2 hPa SSE 26.9 km/h 26.9 km/h 70 % 0 mm 0.0 W/m2 CLR
01:09 -11.3 °C -14.2 °C 34774.2 hPa SSE 15 km/h 15 km/h 70 % 0 mm 0.0 W/m2 CLR
01:14 -11.3 °C -14.2 °C 34784.4 hPa SE 20.9 km/h 20.9 km/h 70 % 0 mm 0.0 W/m2 CLR
01:19 -11.3 °C -14.2 °C 34784.4 hPa SSE 17.9 km/h 17.9 km/h 70 % 0 mm 0.0 W/m2 CLR
01:24 -11.3 °C -14.2 °C 34774.2 hPa SSE 18.2 km/h 18.2 km/h 70 % 0 mm 0.0 W/m2 CLR
01:29 -11.3 °C -14.2 °C 34774.2 hPa SSE 20.9 km/h 20.9 km/h 70 % 0 mm 0.0 W/m2 CLR
01:34 -11.6 °C -14.6 °C 34774.2 hPa South 12.9 km/h 12.9 km/h 70 % 0 mm 0.0 W/m2 CLR
01:39 -11.9 °C -14.9 °C 34774.2 hPa SSW 18.2 km/h 18.2 km/h 69 % 0 mm 0.0 W/m2 CLR
01:44 -11.9 °C -14.9 °C 34774.2 hPa South 26.9 km/h 26.9 km/h 69 % 0 mm 0.0 W/m2 CLR
01:49 -11.9 °C -14.9 °C 34774.2 hPa South 17.9 km/h 17.9 km/h 69 % 0 mm 0.0 W/m2 CLR
01:54 -11.9 °C -14.9 °C 34760.7 hPa SSE 23.3 km/h 23.3 km/h 69 % 0 mm 0.0 W/m2 CLR
01:59 -11.9 °C -14.9 °C 34774.2 hPa South 12.9 km/h 12.9 km/h 69 % 0 mm 0.0 W/m2 CLR
02:04 -11.9 °C -14.9 °C 34760.7 hPa South 20.9 km/h 20.9 km/h 69 % 0 mm 0.0 W/m2 CLR
02:09 -11.9 °C -15.1 °C 34760.7 hPa South 23.8 km/h 23.8 km/h 68 % 0 mm 0.0 W/m2 CLR
02:14 -11.9 °C -15.1 °C 34774.2 hPa SSE 23.8 km/h 23.8 km/h 68 % 0 mm 0.0 W/m2 CLR
02:19 -11.9 °C -15.1 °C 34760.7 hPa Calm     68 % 0 mm 0.0 W/m2 CLR
02:24 -12.2 °C -15.4 °C 34774.2 hPa South 12.9 km/h 12.9 km/h 68 % 0 mm 0.0 W/m2 CLR
02:29 -12.6 °C -15.5 °C 34774.2 hPa SSE 15 km/h 15 km/h 69 % 0 mm 0.0 W/m2 CLR
02:34 -12.8 °C -15.8 °C 34760.7 hPa SSE 15 km/h 15 km/h 69 % 0 mm 0.0 W/m2 CLR
02:39 -13.2 °C -16.1 °C 34760.7 hPa South 15.6 km/h 15.6 km/h 69 % 0 mm 0.0 W/m2 CLR
02:44 -13.4 °C -16.4 °C 34760.7 hPa SSE 15 km/h 15 km/h 69 % 0 mm 0.0 W/m2 CLR
02:49 -13.4 °C -16.4 °C 34760.7 hPa SSE 12.9 km/h 12.9 km/h 69 % 0 mm 0.0 W/m2 CLR
02:54 -13.8 °C -16.7 °C 34760.7 hPa South 9 km/h 9 km/h 69 % 0 mm 0.0 W/m2 CLR
02:59 -14.1 °C -17 °C 34760.7 hPa SSE 7.7 km/h 7.7 km/h 69 % 0 mm 0.0 W/m2 CLR
02:04 -14.1 °C -16.9 °C 34760.7 hPa South 15 km/h 15 km/h 70 % 0 mm 0.0 W/m2 CLR
02:09 -14.1 °C -16.9 °C 34760.7 hPa SSE 23.8 km/h 23.8 km/h 70 % 0 mm 0.0 W/m2 CLR
02:14 -14.4 °C -17.2 °C 34760.7 hPa SSE 15 km/h 15 km/h 70 % 0 mm 0.0 W/m2 CLR
02:19 -14.4 °C -17.2 °C 34760.7 hPa SSE 9 km/h 9 km/h 70 % 0 mm 0.0 W/m2 CLR
02:24 -14.4 °C -17.2 °C 34760.7 hPa SSE 15.6 km/h 15.6 km/h 70 % 0 mm 0.0 W/m2 CLR
02:29 -14.7 °C -17.5 °C 34760.7 hPa SSE 17.9 km/h 17.9 km/h 70 % 0 mm 0.0 W/m2 CLR
02:34 -14.7 °C -17.5 °C 34760.7 hPa SSE 12.9 km/h 12.9 km/h 70 % 0 mm 0.0 W/m2 CLR
02:39 -14.7 °C -17.5 °C 34760.7 hPa SSE 15 km/h 15 km/h 70 % 0 mm 0.0 W/m2 CLR
02:45 -14.7 °C -17.5 °C 34760.7 hPa SSE 17.9 km/h 17.9 km/h 70 % 0 mm 0.0 W/m2 CLR
02:50 -14.7 °C -17.5 °C 34760.7 hPa SSE 15 km/h 15 km/h 70 % 0 mm 0.0 W/m2 CLR
02:55 -14.7 °C -17.5 °C 34760.7 hPa South 20.9 km/h 20.9 km/h 70 % 0 mm 0.0 W/m2 CLR
03:00 -14.7 °C -17.6 °C 34760.7 hPa SSE 23.8 km/h 23.8 km/h 69 % 0 mm 0.0 W/m2 CLR
03:05 -15 °C -17.9 °C 34750.5 hPa South 20.9 km/h 20.9 km/h 69 % 0 mm 0.0 W/m2 CLR
03:10 -15 °C -17.9 °C 34750.5 hPa South 17.9 km/h 17.9 km/h 69 % 0 mm 0.0 W/m2 CLR
03:15 -15 °C -17.9 °C 34750.5 hPa South 23.8 km/h 23.8 km/h 69 % 0 mm 0.0 W/m2 CLR
03:20 -15 °C -17.9 °C 34750.5 hPa SSE 20.9 km/h 20.9 km/h 69 % 0 mm 0.0 W/m2 CLR
03:25 -15 °C -17.9 °C 34750.5 hPa SSE 23.3 km/h 23.3 km/h 69 % 0 mm 0.0 W/m2 CLR
03:30 -15 °C -18 °C 34750.5 hPa SSE 15 km/h 15 km/h 68 % 0 mm 0.0 W/m2 CLR
03:35 -15.3 °C -18.3 °C 34750.5 hPa SSW 15 km/h 15 km/h 68 % 0 mm 0.0 W/m2 CLR
03:40 -15.3 °C -18.3 °C 34750.5 hPa South 17.9 km/h 17.9 km/h 68 % 0 mm 0.0 W/m2 CLR
03:45 -15.3 °C -18.3 °C 34740.4 hPa SSE 15 km/h 15 km/h 68 % 0 mm 0.0 W/m2 CLR
03:50 -15.3 °C -18.3 °C 34740.4 hPa Calm     68 % 0 mm 0.0 W/m2 CLR
03:55 -15.3 °C -18.2 °C 34740.4 hPa Calm     69 % 0 mm 0.0 W/m2 CLR
04:00 -15.3 °C -18.2 °C 34740.4 hPa Calm     69 % 0 mm 0.0 W/m2 CLR
04:05 -15.3 °C -18.2 °C 34740.4 hPa South 11.9 km/h   69 % 0 mm 0.0 W/m2 CLR
04:10 -15.3 °C -18.2 °C 34740.4 hPa Calm     69 % 0 mm 0.0 W/m2 CLR
04:15 -15.6 °C -18.4 °C 34740.4 hPa Calm     70 % 0 mm 0.0 W/m2 CLR
04:20 -15.6 °C -18.2 °C 34740.4 hPa Calm     72 % 0 mm 0.0 W/m2 CLR
04:21 -15.6 °C -18.2 °C 34740.4 hPa Calm     72 % 0 mm 0.0 W/m2 CLR
04:23 -15.6 °C -18.1 °C 34740.4 hPa Calm     73 % 0 mm 0.0 W/m2 CLR
04:24 -15.6 °C -18.1 °C 34740.4 hPa Calm     73 % 0 mm 0.0 W/m2 CLR
04:26 -15.6 °C -18.1 °C 34750.5 hPa Calm     73 % 0 mm 0.0 W/m2 CLR
04:27 -15.6 °C -18.1 °C 34740.4 hPa Calm     73 % 0 mm 0.0 W/m2 CLR
04:32 -15.6 °C -17.9 °C 34750.5 hPa South 5.1 km/h 5.1 km/h 74 % 0 mm 0.0 W/m2 CLR
04:37 -15.6 °C -17.9 °C 34740.4 hPa South 9 km/h 9 km/h 74 % 0 mm 0.0 W/m2 CLR
04:38 -15.6 °C -17.9 °C 34740.4 hPa South 6 km/h   74 % 0 mm 0.0 W/m2 CLR
04:42 -15.9 °C -18.4 °C 34750.5 hPa Calm     73 % 0 mm 0.0 W/m2 CLR
04:47 -15.9 °C -18.4 °C 34750.5 hPa Calm     73 % 0 mm 0.0 W/m2 CLR
04:52 -15.9 °C -18.3 °C 34740.4 hPa Calm     74 % 0 mm 0.0 W/m2 CLR
04:57 -15.9 °C -18.2 °C 34740.4 hPa Calm     75 % 0 mm 0.0 W/m2 CLR
05:02 -15.9 °C -18.1 °C 34740.4 hPa Calm     76 % 0 mm 0.0 W/m2 CLR
05:07 -15.9 °C -17.9 °C 34740.4 hPa SSE 11.9 km/h 11.9 km/h 78 % 0 mm 0.0 W/m2 CLR
05:12 -15.9 °C -17.9 °C 34740.4 hPa SSE 12.9 km/h 12.9 km/h 78 % 0 mm 0.0 W/m2 CLR
05:17 -16.2 °C -18.1 °C 34740.4 hPa South 15 km/h 15 km/h 79 % 0 mm 0.0 W/m2 CLR
05:22 -16.2 °C -18.4 °C 34750.5 hPa Calm     76 % 0 mm 0.0 W/m2 CLR
05:27 -16.2 °C -18.2 °C 34750.5 hPa Calm     77 % 0 mm 0.0 W/m2 CLR
05:32 -16.2 °C -18.2 °C 34750.5 hPa South 6 km/h 6 km/h 78 % 0 mm 0.0 W/m2 CLR
05:37 -16.2 °C -18.1 °C 34750.5 hPa SSE 18.2 km/h 18.2 km/h 79 % 0 mm 0.0 W/m2 CLR
05:42 -16.2 °C -18.1 °C 34750.5 hPa SSE 17.9 km/h 17.9 km/h 79 % 0 mm 0.0 W/m2 CLR
05:47 -16.2 °C -18.1 °C 34750.5 hPa SSE 15 km/h 15 km/h 79 % 0 mm 0.0 W/m2 CLR
05:52 -16.2 °C -17.9 °C 34750.5 hPa South 11.9 km/h 11.9 km/h 80 % 0 mm 0.0 W/m2 CLR
05:57 -16.2 °C -18.1 °C 34750.5 hPa Calm     79 % 0 mm 0.0 W/m2 CLR
06:02 -16.2 °C -18.2 °C 34750.5 hPa Calm     78 % 0 mm 0.0 W/m2 CLR
06:07 -16.2 °C -18.2 °C 34750.5 hPa Calm     78 % 0 mm 0.0 W/m2 CLR
06:12 -16.2 °C -18.2 °C 34750.5 hPa Calm     78 % 0 mm 0.0 W/m2 CLR
06:17 -16.2 °C -18.2 °C 34750.5 hPa Calm     78 % 0 mm 0.0 W/m2 CLR
06:22 -16.2 °C -18.2 °C 34750.5 hPa Calm     78 % 0 mm 0.0 W/m2 CLR
06:27 -16.6 °C -18.4 °C 34750.5 hPa Calm     79 % 0 mm 0.0 W/m2 CLR
06:32 -16.6 °C -18.4 °C 34750.5 hPa Calm     79 % 0 mm 0.0 W/m2 CLR
06:37 -16.6 °C -18.4 °C 34750.5 hPa Calm     79 % 0 mm 0.0 W/m2 CLR
06:42 -16.6 °C -18.4 °C 34750.5 hPa Calm     79 % 0 mm 0.0 W/m2 CLR
06:47 -16.6 °C -18.4 °C 34750.5 hPa Calm     79 % 0 mm 0.0 W/m2 CLR
06:52 -16.6 °C -18.4 °C 34750.5 hPa Calm     79 % 0 mm 0.0 W/m2 CLR
06:57 -16.6 °C -18.4 °C 34750.5 hPa Calm     79 % 0 mm 0.0 W/m2 CLR
07:02 -16.6 °C -18.4 °C 34750.5 hPa Calm     79 % 0 mm 0.0 W/m2 CLR
07:07 -16.6 °C -18.4 °C 34750.5 hPa Calm     79 % 0 mm 0.0 W/m2 CLR
07:12 -16.6 °C -18.4 °C 34750.5 hPa Calm     79 % 0 mm 0.0 W/m2 CLR
07:17 -16.6 °C -18.4 °C 34760.7 hPa Calm     78 % 0 mm 0.0 W/m2 OVC
07:22 -16.6 °C -18.4 °C 34760.7 hPa Calm     78 % 0 mm 0.0 W/m2 OVC
07:27 -16.6 °C -18.4 °C 34760.7 hPa Calm     78 % 0 mm 5.0 W/m2 OVC
07:32 -16.6 °C -18.6 °C 34760.7 hPa Calm     77 % 0 mm 7.0 W/m2 OVC
07:37 -16.6 °C -18.6 °C 34760.7 hPa Calm     77 % 0 mm 9.0 W/m2 OVC
07:42 -16.6 °C -18.6 °C 34760.7 hPa Calm     77 % 0 mm 12.0 W/m2 OVC
07:52 -16.6 °C -18.8 °C 34760.7 hPa Calm     75 % 0 mm 16.0 W/m2 OVC
07:57 -16.6 °C -18.8 °C 34760.7 hPa Calm     74 % 0 mm 23.0 W/m2 OVC
08:02 -16.6 °C -18.8 °C 34774.2 hPa Calm     74 % 0 mm 33.0 W/m2 OVC
08:07 -16.6 °C -18.9 °C 34774.2 hPa Calm     73 % 0 mm 40.0 W/m2 OVC
08:12 -16.6 °C -18.9 °C 34774.2 hPa Calm     73 % 0 mm 56.0 W/m2 OVC
08:17 -16.2 °C -18.8 °C 34774.2 hPa Calm     71 % 0 mm 69.0 W/m2 OVC
08:22 -16.2 °C -18.8 °C 34774.2 hPa Calm     71 % 0 mm 83.0 W/m2 OVC
08:27 -16.2 °C -19 °C 34774.2 hPa Calm     70 % 0 mm 95.0 W/m2 CLR
08:32 -15.9 °C -18.8 °C 34774.2 hPa Calm     69 % 0 mm 91.0 W/m2 SCT
08:37 -15.9 °C -18.9 °C 34774.2 hPa Calm     68 % 0 mm 104.0 W/m2 CLR
08:42 -15.6 °C -18.8 °C 34774.2 hPa Calm     66 % 0 mm 116.0 W/m2 CLR
08:47 -15.6 °C -18.9 °C 34774.2 hPa Calm     65 % 0 mm 151.0 W/m2 CLR
08:52 -15.3 °C -18.8 °C 34774.2 hPa Calm     64 % 0 mm 181.0 W/m2 CLR
08:57 -15.3 °C -18.9 °C 34774.2 hPa Calm     63 % 0 mm 188.0 W/m2 CLR
09:02 -15 °C -18.8 °C 34774.2 hPa SSE 10.3 km/h 10.3 km/h 61 % 0 mm 202.0 W/m2 CLR
09:07 -14.7 °C -18.8 °C 34760.7 hPa South 23.8 km/h 23.8 km/h 59 % 0 mm 234.0 W/m2 CLR
09:12 -14.1 °C -18.5 °C 34774.2 hPa South 26.9 km/h 26.9 km/h 57 % 0 mm 250.0 W/m2 CLR
09:17 -12.8 °C -17.4 °C 34774.2 hPa South 29.8 km/h 29.8 km/h 56 % 0 mm 262.0 W/m2 CLR
09:22 -11.9 °C -16.7 °C 34774.2 hPa SSW 29.8 km/h 29.8 km/h 55 % 0 mm 276.0 W/m2 CLR
09:27 -11.3 °C -16.3 °C 34774.2 hPa South 32.8 km/h 32.8 km/h 54 % 0 mm 288.0 W/m2 CLR
09:32 -11 °C -16 °C 34774.2 hPa South 26.9 km/h 26.9 km/h 54 % 0 mm 304.0 W/m2 CLR
09:37 -11 °C -16.2 °C 34774.2 hPa SSW 25.9 km/h 25.9 km/h 53 % 0 mm 315.0 W/m2 CLR
09:42 -10.7 °C -15.9 °C 34774.2 hPa South 23.8 km/h 23.8 km/h 53 % 0 mm 329.0 W/m2 CLR
09:47 -10.7 °C -16 °C 34774.2 hPa SSE 28.5 km/h 28.5 km/h 52 % 0 mm 341.0 W/m2 CLR
09:52 -10.7 °C -16.2 °C 34774.2 hPa South 41.7 km/h 41.7 km/h 51 % 0 mm 355.0 W/m2 CLR
09:57 -10.4 °C -15.6 °C 34774.2 hPa SSW 32.8 km/h 32.8 km/h 53 % 0 mm 366.0 W/m2 CLR
10:02 -10.4 °C -15.6 °C 34774.2 hPa SSW 29.8 km/h 29.8 km/h 53 % 0 mm 378.0 W/m2 CLR
10:07 -10.4 °C -15.6 °C 34774.2 hPa SW 50.7 km/h 50.7 km/h 53 % 0 mm 390.0 W/m2 CLR
10:12 -10.1 °C -15.3 °C 34760.7 hPa SSW 35.7 km/h 35.7 km/h 53 % 0 mm 403.0 W/m2 CLR
10:17 -10.1 °C -15.4 °C 34760.7 hPa SSW 41.4 km/h 41.4 km/h 52 % 0 mm 413.0 W/m2 CLR
10:22 -10.1 °C -15.4 °C 34760.7 hPa SSW 29.8 km/h 29.8 km/h 52 % 0 mm 424.0 W/m2 CLR
10:27 -10.1 °C -15.3 °C 34760.7 hPa South 44.7 km/h 44.7 km/h 53 % 0 mm 434.0 W/m2 CLR
10:33 -10.1 °C -15.3 °C 34760.7 hPa SSW 32.8 km/h 32.8 km/h 53 % 0 mm 443.0 W/m2 CLR
10:38 -10.1 °C -15.3 °C 34760.7 hPa SW 29.8 km/h 30.6 km/h 53 % 0 mm 455.0 W/m2 CLR
10:43 -9.8 °C -15 °C 34760.7 hPa SW 29.8 km/h 29.8 km/h 53 % 0 mm 462.0 W/m2 CLR
10:48 -9.8 °C -15 °C 34760.7 hPa SSW 41.7 km/h 41.7 km/h 53 % 0 mm 471.0 W/m2 CLR
10:53 -9.8 °C -15 °C 34760.7 hPa SW 35.7 km/h 35.7 km/h 53 % 0 mm 480.0 W/m2 CLR
10:58 -9.4 °C -14.9 °C 34760.7 hPa WSW 33.6 km/h 33.6 km/h 52 % 0 mm 489.0 W/m2 CLR
11:03 -9.4 °C -14.9 °C 34760.7 hPa SW 41.7 km/h 41.7 km/h 52 % 0 mm 496.0 W/m2 CLR
11:08 -9.4 °C -14.9 °C 34760.7 hPa WSW 44.7 km/h 44.7 km/h 52 % 0 mm 504.0 W/m2 CLR
11:13 -9.4 °C -14.9 °C 34760.7 hPa SW 41.7 km/h 41.7 km/h 52 % 0 mm 513.0 W/m2 CLR
11:18 -9.1 °C -14.6 °C 34750.5 hPa SW 41.7 km/h 41.7 km/h 52 % 0 mm 520.0 W/m2 CLR
11:23 -9.1 °C -14.8 °C 34750.5 hPa SW 38.8 km/h 38.8 km/h 51 % 0 mm 527.0 W/m2 CLR
11:28 -8.8 °C -14.5 °C 34750.5 hPa SW 32.8 km/h 32.8 km/h 51 % 0 mm 534.0 W/m2 CLR
11:33 -8.8 °C -14.6 °C 34750.5 hPa WSW 38.8 km/h 38.8 km/h 50 % 0 mm 538.0 W/m2 CLR
11:38 -8.8 °C -14.6 °C 34750.5 hPa SSW 35.7 km/h 35.7 km/h 50 % 0 mm 543.0 W/m2 CLR
11:43 -8.8 °C -14.6 °C 34740.4 hPa SW 32.8 km/h 32.8 km/h 50 % 0 mm 550.0 W/m2 CLR
11:48 -8.8 °C -14.8 °C 34740.4 hPa SSW 32.8 km/h 32.8 km/h 49 % 0 mm 554.0 W/m2 CLR
11:53 -8.5 °C -14.5 °C 34740.4 hPa SW 38.8 km/h 38.8 km/h 49 % 0 mm 559.0 W/m2 CLR
11:58 -8.5 °C -14.3 °C 34740.4 hPa SW 29.8 km/h 29.8 km/h 50 % 0 mm 561.0 W/m2 CLR
12:03 -8.5 °C -14.3 °C 34726.8 hPa SSW 26.9 km/h 26.9 km/h 50 % 0 mm 566.0 W/m2 CLR
12:08 -8.5 °C -14.5 °C 34726.8 hPa SW 32.8 km/h 32.8 km/h 49 % 0 mm 570.0 W/m2 CLR
12:13 -8.5 °C -14.5 °C 34726.8 hPa WSW 44.7 km/h 44.7 km/h 49 % 0 mm 571.0 W/m2 CLR
12:18 -8.2 °C -14.2 °C 34716.7 hPa SSW 31.1 km/h 34.4 km/h 49 % 0 mm 573.0 W/m2 CLR
12:23 -8.2 °C -14.2 °C 34716.7 hPa WSW 41.7 km/h 41.7 km/h 49 % 0 mm 577.0 W/m2 CLR
12:28 -8.5 °C -14.5 °C 34716.7 hPa SW 44.7 km/h 44.7 km/h 49 % 0 mm 578.0 W/m2 CLR
12:33 -8.2 °C -14.1 °C 34703.1 hPa SW 38.8 km/h 38.8 km/h 50 % 0 mm 580.0 W/m2 CLR
12:39 -7.9 °C -13.9 °C 34703.1 hPa WSW 38.8 km/h 38.8 km/h 49 % 0 mm 580.0 W/m2 CLR
12:44 -7.9 °C -13.9 °C 34703.1 hPa SSW 29.8 km/h 29.8 km/h 49 % 0 mm 580.0 W/m2 CLR
12:49 -7.6 °C -13.8 °C 34703.1 hPa SSW 38.8 km/h 38.8 km/h 48 % 0 mm 582.0 W/m2 CLR
12:54 -7.9 °C -14.3 °C 34703.1 hPa SW 41.7 km/h 41.7 km/h 47 % 0 mm 578.0 W/m2 CLR
12:59 -7.9 °C -14.1 °C 34693 hPa WSW 33.6 km/h 33.6 km/h 48 % 0 mm 577.0 W/m2 CLR
13:04 -7.9 °C -14.1 °C 34693 hPa WSW 32.8 km/h 32.8 km/h 48 % 0 mm 577.0 W/m2 CLR
13:09 -7.6 °C -14 °C 34693 hPa SW 33.6 km/h 33.6 km/h 47 % 0 mm 573.0 W/m2 CLR
13:14 -7.9 °C -14.3 °C 34682.8 hPa SSW 35.7 km/h 35.7 km/h 47 % 0 mm 573.0 W/m2 CLR
13:19 -7.6 °C -14 °C 34682.8 hPa SW 35.7 km/h 35.7 km/h 47 % 0 mm 570.0 W/m2 CLR
13:24 -7.6 °C -14 °C 34682.8 hPa WSW 35.7 km/h 35.7 km/h 47 % 0 mm 568.0 W/m2 CLR
13:29 -7.6 °C -14.2 °C 34682.8 hPa SW 41.7 km/h 41.7 km/h 46 % 0 mm 564.0 W/m2 CLR
13:34 -7.3 °C -13.9 °C 34682.8 hPa West 32.8 km/h 32.8 km/h 46 % 0 mm 559.0 W/m2 CLR
13:39 -7.3 °C -14.1 °C 34669.3 hPa SW 38.8 km/h 38.8 km/h 45 % 0 mm 557.0 W/m2 CLR
13:44 -7.3 °C -14.1 °C 34669.3 hPa WSW 41.7 km/h 41.7 km/h 45 % 0 mm 552.0 W/m2 CLR
13:49 -7.3 °C -14.1 °C 34669.3 hPa WSW 44.7 km/h 44.7 km/h 45 % 0 mm 545.0 W/m2 CLR
13:54 -7.3 °C -14.2 °C 34669.3 hPa SW 29.8 km/h 29.8 km/h 44 % 0 mm 541.0 W/m2 CLR
13:59 -7.3 °C -14.2 °C 34659.1 hPa West 44.7 km/h 44.7 km/h 44 % 0 mm 536.0 W/m2 CLR
14:04 -7 °C -13.9 °C 34659.1 hPa WSW 31.1 km/h 31.1 km/h 44 % 0 mm 531.0 W/m2 CLR
14:09 -7.3 °C -14.2 °C 34659.1 hPa SW 17.9 km/h 17.9 km/h 44 % 0 mm 526.0 W/m2 CLR
14:14 -7.3 °C -14.2 °C 34659.1 hPa SW 38.8 km/h 38.8 km/h 44 % 0 mm 517.0 W/m2 CLR
14:19 -7 °C -13.9 °C 34645.6 hPa SW 23.8 km/h 23.8 km/h 44 % 0 mm 510.0 W/m2 CLR
14:24 -7 °C -13.9 °C 34645.6 hPa SW 41.7 km/h 41.7 km/h 44 % 0 mm 501.0 W/m2 CLR
14:29 -7 °C -14.1 °C 34645.6 hPa WSW 38.8 km/h 38.8 km/h 43 % 0 mm 494.0 W/m2 CLR
14:34 -7 °C -13.9 °C 34645.6 hPa SW 41.7 km/h 41.7 km/h 44 % 0 mm 485.0 W/m2 CLR
14:39 -7 °C -14.1 °C 34645.6 hPa SW 38.8 km/h 38.8 km/h 43 % 0 mm 476.0 W/m2 CLR
14:44 -7 °C -14.1 °C 34635.4 hPa WSW 41.7 km/h 41.7 km/h 43 % 0 mm 468.0 W/m2 CLR
14:49 -7 °C -14.1 °C 34635.4 hPa WSW 32.8 km/h 32.8 km/h 43 % 0 mm 459.0 W/m2 CLR
14:54 -7 °C -14.3 °C 34635.4 hPa SSW 29.8 km/h 29.8 km/h 42 % 0 mm 450.0 W/m2 CLR
14:59 -7 °C -14.3 °C 34635.4 hPa SW 31.1 km/h 31.1 km/h 42 % 0 mm 438.0 W/m2 CLR
15:04 -7 °C -14.3 °C 34635.4 hPa WSW 29.8 km/h 29.8 km/h 42 % 0 mm 427.0 W/m2 CLR
15:09 -7 °C -14.3 °C 34635.4 hPa SW 26.9 km/h 26.9 km/h 42 % 0 mm 415.0 W/m2 CLR
15:14 -7 °C -14.3 °C 34635.4 hPa West 26.9 km/h 26.9 km/h 42 % 0 mm 406.0 W/m2 CLR
15:19 -7 °C -14.3 °C 34635.4 hPa WSW 44.7 km/h 44.7 km/h 42 % 0 mm 396.0 W/m2 CLR
15:24 -7 °C -14.3 °C 34635.4 hPa West 29.8 km/h 29.8 km/h 42 % 0 mm 381.0 W/m2 CLR
15:29 -7 °C -14.3 °C 34625.2 hPa WSW 41.7 km/h 41.7 km/h 42 % 0 mm 371.0 W/m2 CLR
15:34 -7 °C -14.3 °C 34625.2 hPa WSW 35.7 km/h 35.7 km/h 42 % 0 mm 359.0 W/m2 CLR
15:39 -7 °C -14.3 °C 34625.2 hPa SW 31.1 km/h 31.1 km/h 42 % 0 mm 346.0 W/m2 CLR
15:44 -7 °C -14.3 °C 34625.2 hPa West 29.8 km/h 29.8 km/h 42 % 0 mm 332.0 W/m2 CLR
15:49 -7 °C -14.3 °C 34625.2 hPa WSW 41.4 km/h 41.4 km/h 42 % 0 mm 322.0 W/m2 CLR
15:54 -7 °C -14.3 °C 34625.2 hPa West 38.8 km/h 38.8 km/h 42 % 0 mm 309.0 W/m2 CLR
15:59 -7 °C -14.3 °C 34625.2 hPa WSW 38.8 km/h 38.8 km/h 42 % 0 mm 297.0 W/m2 CLR
16:04 -7 °C -14.3 °C 34625.2 hPa WSW 44.7 km/h 44.7 km/h 42 % 0 mm 281.0 W/m2 CLR
16:09 -7 °C -14.3 °C 34625.2 hPa WSW 32.8 km/h 32.8 km/h 42 % 0 mm 267.0 W/m2 CLR
16:14 -7 °C -14.3 °C 34611.7 hPa SSW 31.1 km/h 31.1 km/h 42 % 0 mm 253.0 W/m2 CLR
16:19 -7 °C -14.3 °C 34611.7 hPa SW 29.8 km/h 29.8 km/h 42 % 0 mm 237.0 W/m2 CLR
16:24 -7.3 °C -14.6 °C 34611.7 hPa WSW 38.8 km/h 38.8 km/h 42 % 0 mm 220.0 W/m2 CLR
16:29 -7.3 °C -14.6 °C 34611.7 hPa WSW 26.9 km/h 26.9 km/h 42 % 0 mm 204.0 W/m2 CLR
16:34 -7.3 °C -14.6 °C 34611.7 hPa SW 29.8 km/h 29.8 km/h 42 % 0 mm 188.0 W/m2 CLR
16:39 -7.3 °C -14.6 °C 34611.7 hPa SW 35.7 km/h 35.7 km/h 42 % 0 mm 172.0 W/m2 CLR
16:44 -7.3 °C -14.6 °C 34611.7 hPa SSW 26.9 km/h 26.9 km/h 42 % 0 mm 155.0 W/m2 CLR
16:49 -7.6 °C -14.9 °C 34601.5 hPa WSW 35.7 km/h 35.7 km/h 42 % 0 mm 135.0 W/m2 CLR
16:54 -7.6 °C -14.9 °C 34601.5 hPa SSW 36.2 km/h 36.2 km/h 42 % 0 mm 121.0 W/m2 CLR
16:59 -7.6 °C -14.7 °C 34611.7 hPa SW 41.7 km/h 41.7 km/h 43 % 0 mm 105.0 W/m2 CLR
17:04 -7.6 °C -14.7 °C 34601.5 hPa SW 38.8 km/h 38.8 km/h 43 % 0 mm 91.0 W/m2 CLR
17:09 -7.6 °C -14.7 °C 34601.5 hPa SW 35.7 km/h 35.7 km/h 43 % 0 mm 67.0 W/m2 SCT
17:14 -7.6 °C -14.7 °C 34601.5 hPa SW 47.6 km/h 47.6 km/h 43 % 0 mm 54.0 W/m2 SCT
17:19 -7.6 °C -14.7 °C 34601.5 hPa WSW 38.8 km/h 38.8 km/h 43 % 0 mm 44.0 W/m2 SCT
17:24 -7.9 °C -15 °C 34601.5 hPa SW 32.8 km/h 32.8 km/h 43 % 0 mm 35.0 W/m2 BKN
17:29 -7.9 °C -15 °C 34601.5 hPa SSW 32.8 km/h 32.8 km/h 43 % 0 mm 28.0 W/m2 BKN
17:34 -7.9 °C -14.8 °C 34601.5 hPa SW 35.7 km/h 35.7 km/h 44 % 0 mm 19.0 W/m2 BKN
17:39 -7.9 °C -14.8 °C 34601.5 hPa WSW 32.8 km/h 32.8 km/h 44 % 0 mm 14.0 W/m2 BKN
17:40 -7.9 °C -14.8 °C 34601.5 hPa WSW 32.8 km/h 32.8 km/h 44 % 0 mm 14.0 W/m2 BKN
17:45 -8.2 °C -14.9 °C 34601.5 hPa SW 23.8 km/h 23.8 km/h 45 % 0 mm 12.0 W/m2 BKN
17:50 -8.2 °C -14.9 °C 34601.5 hPa SSW 23.3 km/h 23.3 km/h 45 % 0 mm 9.0 W/m2 BKN
17:55 -8.5 °C -15.2 °C 34601.5 hPa SW 18.2 km/h 20.4 km/h 45 % 0 mm 7.0 W/m2 BKN
18:00 -8.8 °C -15.3 °C 34601.5 hPa WSW 29.8 km/h 29.8 km/h 46 % 0 mm 5.0 W/m2 OVC
18:05 -8.8 °C -15.1 °C 34611.7 hPa SW 23.8 km/h 23.8 km/h 47 % 0 mm 0.0 W/m2 CLR
18:10 -8.8 °C -15.1 °C 34611.7 hPa SSW 17.9 km/h 17.9 km/h 47 % 0 mm 0.0 W/m2 CLR
18:15 -8.8 °C -15.1 °C 34611.7 hPa SSW 20.9 km/h 20.9 km/h 47 % 0 mm 0.0 W/m2 CLR
18:20 -9.1 °C -15.4 °C 34611.7 hPa Calm     47 % 0 mm 0.0 W/m2 CLR
18:25 -9.4 °C -15.5 °C 34611.7 hPa Calm     48 % 0 mm 0.0 W/m2 CLR
18:30 -9.8 °C -15.8 °C 34611.7 hPa Calm     48 % 0 mm 0.0 W/m2 CLR
18:35 -10.1 °C -16.1 °C 34611.7 hPa South 6 km/h 6 km/h 48 % 0 mm 0.0 W/m2 CLR
18:40 -10.4 °C -16.2 °C 34625.2 hPa Calm     49 % 0 mm 0.0 W/m2 CLR
18:45 -10.7 °C -16.5 °C 34625.2 hPa SSW 15.6 km/h 15.6 km/h 49 % 0 mm 0.0 W/m2 CLR
18:50 -10.7 °C -16.3 °C 34625.2 hPa SSW 15.6 km/h 15.6 km/h 50 % 0 mm 0.0 W/m2 CLR
18:55 -10.4 °C -16.1 °C 34625.2 hPa SSW 23.8 km/h 23.8 km/h 50 % 0 mm 0.0 W/m2 CLR
19:00 -10.4 °C -15.9 °C 34625.2 hPa SSW 20.9 km/h 20.9 km/h 51 % 0 mm 0.0 W/m2 CLR
19:05 -10.1 °C -15.6 °C 34625.2 hPa SSW 20.9 km/h 20.9 km/h 51 % 0 mm 0.0 W/m2 CLR
19:10 -9.8 °C -15.3 °C 34625.2 hPa SSW 29.8 km/h 29.8 km/h 51 % 0 mm 0.0 W/m2 CLR
19:15 -9.8 °C -15.2 °C 34625.2 hPa SSW 26.9 km/h 26.9 km/h 52 % 0 mm 0.0 W/m2 CLR
19:20 -9.4 °C -14.9 °C 34625.2 hPa SSW 20.9 km/h 20.9 km/h 52 % 0 mm 0.0 W/m2 CLR
19:25 -9.8 °C -15 °C 34625.2 hPa SSW 26.9 km/h 26.9 km/h 53 % 0 mm 0.0 W/m2 CLR
19:30 -9.4 °C -14.4 °C 34625.2 hPa SW 35.7 km/h 35.7 km/h 55 % 0 mm 0.0 W/m2 CLR
19:35 -9.4 °C -14.3 °C 34635.4 hPa SW 32.8 km/h 32.8 km/h 56 % 0 mm 0.0 W/m2 CLR
19:40 -9.4 °C -14.3 °C 34635.4 hPa SW 20.9 km/h 20.9 km/h 56 % 0 mm 0.0 W/m2 CLR
19:45 -9.8 °C -14.3 °C 34635.4 hPa SW 17.9 km/h 17.9 km/h 58 % 0 mm 0.0 W/m2 CLR
19:50 -9.8 °C -14.3 °C 34635.4 hPa South 26.9 km/h 26.9 km/h 58 % 0 mm 0.0 W/m2 CLR
19:55 -9.8 °C -14.2 °C 34635.4 hPa SSW 29.8 km/h 29.8 km/h 59 % 0 mm 0.0 W/m2 CLR
20:00 -9.8 °C -14 °C 34635.4 hPa SSW 35.7 km/h 35.7 km/h 60 % 0 mm 0.0 W/m2 CLR
20:05 -9.4 °C -13.6 °C 34635.4 hPa SSW 46.7 km/h 46.7 km/h 61 % 0 mm 0.0 W/m2 CLR
20:10 -9.8 °C -13.8 °C 34645.6 hPa SW 41.7 km/h 41.7 km/h 62 % 0 mm 0.0 W/m2 CLR
20:15 -9.8 °C -13.8 °C 34645.6 hPa SW 32.8 km/h 32.8 km/h 62 % 0 mm 0.0 W/m2 CLR
20:16 -9.8 °C -13.8 °C 34645.6 hPa SW 32.8 km/h 32.8 km/h 62 % 0 mm 0.0 W/m2 CLR
20:21 -9.8 °C -13.6 °C 34645.6 hPa SSW 29.8 km/h 29.8 km/h 63 % 0 mm 0.0 W/m2 CLR
20:26 -10.1 °C -13.9 °C 34645.6 hPa SSW 31.1 km/h 31.1 km/h 63 % 0 mm 0.0 W/m2 CLR
20:31 -10.1 °C -13.9 °C 34645.6 hPa SW 29.8 km/h 29.8 km/h 63 % 0 mm 0.0 W/m2 CLR
20:36 -10.1 °C -13.8 °C 34645.6 hPa South 32.8 km/h 32.8 km/h 64 % 0 mm 0.0 W/m2 CLR
20:41 -10.1 °C -13.7 °C 34645.6 hPa SSW 28.5 km/h 28.5 km/h 65 % 0 mm 0.0 W/m2 CLR
20:46 -10.1 °C -13.7 °C 34645.6 hPa South 32.8 km/h 32.8 km/h 65 % 0 mm 0.0 W/m2 CLR
20:51 -10.1 °C -13.7 °C 34645.6 hPa South 35.7 km/h 35.7 km/h 65 % 0 mm 0.0 W/m2 CLR
20:56 -10.1 °C -13.6 °C 34645.6 hPa SSW 50.7 km/h 50.7 km/h 66 % 0 mm 0.0 W/m2 CLR
21:01 -10.1 °C -13.6 °C 34645.6 hPa SSW 41.7 km/h 41.7 km/h 66 % 0 mm 0.0 W/m2 CLR
21:06 -10.1 °C -13.6 °C 34645.6 hPa SSW 41.7 km/h 41.7 km/h 66 % 0 mm 0.0 W/m2 CLR
21:11 -10.1 °C -13.4 °C 34645.6 hPa South 47.6 km/h 47.6 km/h 67 % 0 mm 0.0 W/m2 CLR
21:16 -10.4 °C -13.7 °C 34645.6 hPa SSW 32.8 km/h 32.8 km/h 67 % 0 mm 0.0 W/m2 CLR
21:21 -10.4 °C -13.7 °C 34645.6 hPa South 38.8 km/h 38.8 km/h 67 % 0 mm 0.0 W/m2 CLR
21:26 -10.4 °C -13.7 °C 34645.6 hPa South 41.4 km/h 41.4 km/h 67 % 0 mm 0.0 W/m2 CLR
21:31 -10.4 °C -13.6 °C 34645.6 hPa SSW 35.7 km/h 35.7 km/h 68 % 0 mm 0.0 W/m2 CLR
21:36 -10.4 °C -13.6 °C 34645.6 hPa South 29.8 km/h 30.6 km/h 68 % 0 mm 0.0 W/m2 CLR
21:41 -10.4 °C -13.6 °C 34645.6 hPa SSW 35.7 km/h 35.7 km/h 68 % 0 mm 0.0 W/m2 CLR
21:46 -10.4 °C -13.4 °C 34645.6 hPa South 36.2 km/h 36.2 km/h 69 % 0 mm 0.0 W/m2 CLR
21:51 -10.4 °C -13.4 °C 34645.6 hPa South 35.7 km/h 35.7 km/h 69 % 0 mm 0.0 W/m2 CLR
21:56 -10.4 °C -13.4 °C 34645.6 hPa SSW 29.8 km/h 29.8 km/h 69 % 0 mm 0.0 W/m2 CLR
22:01 -10.4 °C -13.3 °C 34645.6 hPa SSE 17.9 km/h 17.9 km/h 70 % 0 mm 0.0 W/m2 CLR
22:06 -10.4 °C -13.3 °C 34645.6 hPa SSW 29.8 km/h 29.8 km/h 70 % 0 mm 0.0 W/m2 CLR
22:11 -10.4 °C -13.3 °C 34645.6 hPa South 23.8 km/h 23.8 km/h 70 % 0 mm 0.0 W/m2 CLR
22:16 -10.7 °C -13.7 °C 34645.6 hPa South 29.8 km/h 29.8 km/h 70 % 0 mm 0.0 W/m2 CLR
22:21 -10.7 °C -13.7 °C 34645.6 hPa SSW 29.8 km/h 29.8 km/h 70 % 0 mm 0.0 W/m2 CLR
22:26 -10.7 °C -13.5 °C 34645.6 hPa SSW 32.8 km/h 32.8 km/h 71 % 0 mm 0.0 W/m2 CLR
22:31 -10.7 °C -13.5 °C 34645.6 hPa South 29.8 km/h 29.8 km/h 71 % 0 mm 0.0 W/m2 CLR
22:36 -10.7 °C -13.5 °C 34645.6 hPa SSW 38.8 km/h 38.8 km/h 71 % 0 mm 0.0 W/m2 CLR
22:41 -11 °C -13.7 °C 34645.6 hPa SSW 35.7 km/h 35.7 km/h 72 % 0 mm 0.0 W/m2 CLR
22:46 -11 °C -13.7 °C 34645.6 hPa SSW 32.8 km/h 32.8 km/h 72 % 0 mm 0.0 W/m2 CLR
22:51 -11 °C -13.6 °C 34635.4 hPa SSE 29.8 km/h 29.8 km/h 73 % 0 mm 0.0 W/m2 CLR
22:56 -11 °C -13.6 °C 34635.4 hPa South 23.8 km/h 23.8 km/h 73 % 0 mm 0.0 W/m2 CLR
23:01 -11 °C -13.6 °C 34635.4 hPa South 20.9 km/h 20.9 km/h 73 % 0 mm 0.0 W/m2 CLR
23:06 -11 °C -13.6 °C 34635.4 hPa SSE 20.9 km/h 20.9 km/h 73 % 0 mm 0.0 W/m2 CLR
23:11 -11 °C -13.6 °C 34635.4 hPa South 20.9 km/h 20.9 km/h 73 % 0 mm 0.0 W/m2 CLR
23:16 -11 °C -13.6 °C 34635.4 hPa SSE 15.6 km/h 15.6 km/h 73 % 0 mm 0.0 W/m2 CLR
23:21 -11 °C -13.6 °C 34635.4 hPa South 17.9 km/h 17.9 km/h 73 % 0 mm 0.0 W/m2 CLR
23:26 -11.3 °C -13.9 °C 34635.4 hPa SSE 20.9 km/h 20.9 km/h 73 % 0 mm 0.0 W/m2 CLR
23:31 -11.3 °C -13.9 °C 34635.4 hPa SSW 11.9 km/h 11.9 km/h 73 % 0 mm 0.0 W/m2 CLR
23:36 -11 °C -13.5 °C 34635.4 hPa South 26.9 km/h 26.9 km/h 74 % 0 mm 0.0 W/m2 CLR
23:41 -11.3 °C -13.8 °C 34625.2 hPa South 12.9 km/h 12.9 km/h 74 % 0 mm 0.0 W/m2 CLR
23:46 -11 °C -13.5 °C 34625.2 hPa SSE 9 km/h 9 km/h 74 % 0 mm 0.0 W/m2 CLR
23:51 -11 °C -13.5 °C 34625.2 hPa SSE 20.9 km/h 20.9 km/h 74 % 0 mm 0.0 W/m2 CLR
23:56 -10.7 °C -13.3 °C 34625.2 hPa SSW 11.9 km/h 11.9 km/h 73 % 0 mm 0.0 W/m2 CLR
Lo Temps de Massalio
Compliments of Weather Underground - 1.25 mb